createdAt,value
2019-03-27T00:01:48.951Z,69.72
2019-03-27T00:04:19.348Z,69.52
2019-03-27T00:06:49.794Z,69.59
2019-03-27T00:09:20.206Z,69.85
2019-03-27T00:11:50.644Z,69.88
2019-03-27T00:14:20.969Z,70.34
2019-03-27T00:16:51.411Z,70.90
2019-03-27T00:19:22.917Z,70.95
2019-03-27T00:21:53.519Z,71.17
2019-03-27T00:24:23.908Z,70.92
2019-03-27T00:26:54.352Z,70.98
2019-03-27T00:29:24.734Z,71.05
2019-03-27T00:31:55.117Z,71.21
2019-03-27T00:34:25.519Z,70.91
2019-03-27T00:36:55.938Z,70.89
2019-03-27T00:39:26.323Z,71.62
2019-03-27T00:41:56.788Z,71.80
2019-03-27T00:44:31.169Z,71.21
2019-03-27T00:47:01.583Z,72.84
2019-03-27T00:49:31.979Z,73.00
2019-03-27T00:52:02.395Z,73.55
2019-03-27T00:54:32.795Z,73.75
2019-03-27T00:57:03.247Z,73.61
2019-03-27T00:59:33.646Z,73.54
2019-03-27T01:02:04.119Z,73.71
2019-03-27T01:04:34.518Z,74.06
2019-03-27T01:07:04.990Z,74.02
2019-03-27T01:09:35.598Z,73.80
2019-03-27T01:12:06.055Z,73.46
2019-03-27T01:14:36.469Z,73.44
2019-03-27T01:17:06.932Z,74.30
2019-03-27T01:19:38.262Z,74.60
2019-03-27T01:22:09.321Z,75.23
2019-03-27T01:24:39.714Z,75.01
2019-03-27T01:27:10.166Z,75.74
2019-03-27T01:29:40.563Z,76.48
2019-03-27T01:32:11.010Z,76.19
2019-03-27T01:34:41.394Z,75.82
2019-03-27T01:37:11.772Z,76.09
2019-03-27T01:39:42.179Z,75.51
2019-03-27T01:42:12.620Z,75.34
2019-03-27T01:44:43.024Z,76.03
2019-03-27T01:47:13.459Z,76.08
2019-03-27T01:49:43.841Z,75.93
2019-03-27T01:52:14.324Z,76.32
2019-03-27T01:54:44.730Z,76.01
2019-03-27T01:57:15.197Z,75.77
2019-03-27T01:59:45.615Z,75.99
2019-03-27T02:02:16.061Z,76.57
2019-03-27T02:04:46.458Z,77.15
2019-03-27T02:07:16.903Z,77.54
2019-03-27T02:09:47.312Z,76.77
2019-03-27T02:12:17.686Z,77.03
2019-03-27T02:14:48.163Z,78.02
2019-03-27T02:17:18.605Z,78.07
2019-03-27T02:19:50.055Z,78.21
2019-03-27T02:22:20.667Z,78.00
2019-03-27T02:24:51.094Z,77.71
2019-03-27T02:27:21.532Z,77.48
2019-03-27T02:29:51.939Z,77.33
2019-03-27T02:32:22.375Z,76.67
2019-03-27T02:34:52.755Z,76.71
2019-03-27T02:37:23.208Z,76.12
2019-03-27T02:39:53.598Z,76.39
2019-03-27T02:42:24.042Z,76.16
2019-03-27T02:44:54.425Z,76.34
2019-03-27T02:47:24.865Z,76.03
2019-03-27T02:49:55.354Z,75.40
2019-03-27T02:52:25.710Z,75.92
2019-03-27T02:54:56.116Z,76.50
2019-03-27T02:57:26.522Z,76.18
2019-03-27T02:59:56.925Z,75.68
2019-03-27T03:02:27.351Z,75.41
2019-03-27T03:04:57.753Z,76.12
2019-03-27T03:07:28.198Z,76.08
2019-03-27T03:09:58.606Z,76.19
2019-03-27T03:12:29.056Z,76.20
2019-03-27T03:14:59.469Z,76.08
2019-03-27T03:17:29.950Z,75.48
2019-03-27T03:20:01.203Z,75.55
2019-03-27T03:22:31.653Z,75.36
2019-03-27T03:25:02.047Z,75.24
2019-03-27T03:27:32.523Z,75.49
2019-03-27T03:30:02.954Z,74.96
2019-03-27T03:32:33.547Z,74.97
2019-03-27T03:35:04.975Z,74.62
2019-03-27T03:37:35.428Z,74.36
2019-03-27T03:40:06.343Z,73.51
2019-03-27T03:42:37.129Z,72.80
2019-03-27T03:45:08.061Z,72.40
2019-03-27T03:47:38.527Z,72.92
2019-03-27T03:50:10.678Z,72.13
2019-03-27T03:52:45.577Z,71.74
2019-03-27T03:55:13.368Z,71.23
2019-03-27T03:57:46.525Z,71.66
2019-03-27T04:00:16.923Z,71.25
2019-03-27T04:02:48.077Z,70.90
2019-03-27T04:05:21.423Z,70.56
2019-03-27T04:07:51.878Z,69.19
2019-03-27T04:10:22.271Z,67.91
2019-03-27T04:12:52.635Z,68.24
2019-03-27T04:15:23.041Z,67.58
2019-03-27T04:17:53.510Z,66.98
2019-03-27T04:20:23.957Z,67.61
2019-03-27T04:22:54.485Z,65.96
2019-03-27T04:25:24.882Z,65.90
2019-03-27T04:27:56.436Z,65.78
2019-03-27T04:30:26.831Z,66.21
2019-03-27T04:32:57.278Z,64.93
2019-03-27T04:35:27.592Z,64.43
2019-03-27T04:37:57.971Z,64.61
2019-03-27T04:40:28.355Z,64.58
2019-03-27T04:42:58.802Z,64.83
2019-03-27T04:45:29.205Z,64.09
2019-03-27T04:47:59.582Z,64.03
2019-03-27T04:50:29.970Z,64.81
2019-03-27T04:53:00.425Z,65.09
2019-03-27T04:55:30.809Z,65.86
2019-03-27T04:58:01.175Z,64.69
2019-03-27T05:00:31.584Z,64.76
2019-03-27T05:03:02.011Z,64.48
2019-03-27T05:05:33.319Z,63.23
2019-03-27T05:08:03.770Z,62.69
2019-03-27T05:10:34.117Z,62.54
2019-03-27T05:13:07.294Z,62.00
2019-03-27T05:15:37.739Z,61.35
2019-03-27T05:18:08.132Z,60.67
2019-03-27T05:20:39.475Z,61.29
2019-03-27T05:23:10.022Z,60.70
2019-03-27T05:25:40.423Z,60.50
2019-03-27T05:28:10.863Z,60.12
2019-03-27T05:30:41.262Z,59.57
2019-03-27T05:33:11.732Z,57.93
2019-03-27T05:35:42.159Z,57.46
2019-03-27T05:38:12.631Z,56.46
2019-03-27T05:40:43.018Z,56.55
2019-03-27T05:43:13.468Z,54.79
2019-03-27T05:45:43.874Z,54.14
2019-03-27T05:48:14.335Z,53.82
2019-03-27T05:50:44.723Z,52.98
2019-03-27T05:53:15.164Z,51.94
2019-03-27T05:55:45.578Z,50.76
2019-03-27T05:58:16.030Z,50.97
2019-03-27T06:00:46.438Z,50.37
2019-03-27T06:03:16.841Z,51.19
2019-03-27T06:05:47.302Z,50.44
2019-03-27T06:08:17.708Z,50.07
2019-03-27T06:10:48.121Z,49.58
2019-03-27T06:13:18.570Z,49.02
2019-03-27T06:15:48.984Z,49.45
2019-03-27T06:18:19.373Z,48.71
2019-03-27T06:20:50.805Z,47.72
2019-03-27T06:23:21.267Z,47.34
2019-03-27T06:25:51.702Z,47.43
2019-03-27T06:28:22.084Z,46.32
2019-03-27T06:30:52.528Z,45.93
2019-03-27T06:33:23.125Z,47.42
2019-03-27T06:35:53.824Z,46.84
2019-03-27T06:38:24.241Z,46.36
2019-03-27T06:40:54.753Z,44.84
2019-03-27T06:43:25.195Z,44.03
2019-03-27T06:45:58.281Z,44.27
2019-03-27T06:48:27.740Z,41.72
2019-03-27T06:50:58.180Z,42.95
2019-03-27T06:53:28.587Z,43.42
2019-03-27T06:55:59.031Z,39.62
2019-03-27T06:58:29.438Z,36.07
2019-03-27T07:00:59.889Z,36.02
2019-03-27T07:03:30.297Z,35.59
2019-03-27T07:06:00.611Z,34.36
2019-03-27T07:08:30.875Z,35.01
2019-03-27T07:11:01.225Z,35.03
2019-03-27T07:13:31.617Z,34.52
2019-03-27T07:16:02.034Z,33.30
2019-03-27T07:18:39.967Z,32.23
2019-03-27T07:21:07.134Z,31.93
2019-03-27T07:23:37.561Z,31.85
2019-03-27T07:26:07.873Z,32.87
2019-03-27T07:28:38.199Z,32.24
2019-03-27T07:31:08.544Z,31.32
2019-03-27T07:33:38.941Z,31.44
2019-03-27T07:36:09.241Z,32.16
2019-03-27T07:38:39.666Z,32.68
2019-03-27T07:41:11.151Z,32.30
2019-03-27T07:43:41.527Z,31.90
2019-03-27T07:46:11.893Z,32.23
2019-03-27T07:48:53.294Z,32.47
2019-03-27T07:51:14.326Z,32.18
2019-03-27T07:53:45.768Z,31.74
2019-03-27T07:56:16.104Z,32.33
2019-03-27T07:58:46.410Z,32.87
2019-03-27T08:01:16.743Z,33.35
2019-03-27T08:03:48.613Z,34.39
2019-03-27T08:06:20.611Z,33.52
2019-03-27T08:08:51.060Z,32.69
2019-03-27T08:11:21.474Z,32.19
2019-03-27T08:13:51.799Z,32.17
2019-03-27T08:16:22.224Z,32.88
2019-03-27T08:18:52.513Z,32.34
2019-03-27T08:21:23.779Z,33.03
2019-03-27T08:23:54.325Z,32.46
2019-03-27T08:26:24.732Z,32.79
2019-03-27T08:28:55.141Z,33.20
2019-03-27T08:31:25.617Z,34.73
2019-03-27T08:33:55.918Z,35.06
2019-03-27T08:36:26.217Z,34.90
2019-03-27T08:38:57.999Z,32.91
2019-03-27T08:41:29.872Z,33.50
2019-03-27T08:44:00.263Z,33.60
2019-03-27T08:46:30.831Z,33.76
2019-03-27T08:49:05.710Z,33.39
2019-03-27T08:51:38.572Z,33.39
2019-03-27T08:54:12.810Z,33.54
2019-03-27T08:56:43.008Z,31.78
2019-03-27T08:59:13.456Z,32.44
2019-03-27T09:01:43.800Z,32.87
2019-03-27T09:04:14.146Z,31.99
2019-03-27T09:06:47.023Z,32.26
2019-03-27T09:09:17.336Z,31.94
2019-03-27T09:11:49.152Z,32.68
2019-03-27T09:14:19.550Z,32.75
2019-03-27T09:16:49.987Z,34.89
2019-03-27T09:19:34.493Z,36.60
2019-03-27T09:21:55.534Z,37.62
2019-03-27T09:24:27.734Z,38.73
2019-03-27T09:26:59.284Z,37.14
2019-03-27T09:29:29.881Z,37.62
2019-03-27T09:32:00.331Z,38.20
2019-03-27T09:34:34.520Z,37.71
2019-03-27T09:37:04.954Z,37.09
2019-03-27T09:39:38.046Z,35.66
2019-03-27T09:42:08.571Z,34.44
2019-03-27T09:44:40.552Z,32.84
2019-03-27T09:47:12.240Z,32.18
2019-03-27T09:49:49.761Z,32.18
2019-03-27T09:52:17.251Z,30.26
2019-03-27T09:54:47.830Z,30.91
2019-03-27T09:57:18.248Z,29.43
2019-03-27T09:59:48.667Z,30.33
2019-03-27T10:02:21.701Z,31.69
2019-03-27T10:04:55.710Z,31.80
2019-03-27T10:07:24.742Z,32.11
2019-03-27T10:09:55.127Z,32.11
2019-03-27T10:12:25.503Z,32.32
2019-03-27T10:14:57.148Z,32.35
2019-03-27T10:17:27.938Z,32.67
2019-03-27T10:20:03.724Z,32.43
2019-03-27T10:22:33.317Z,32.11
2019-03-27T10:25:05.437Z,31.10
2019-03-27T12:42:48.832Z,63.91
2019-03-27T12:50:05.320Z,67.47
2019-03-27T13:00:15.225Z,70.49
2019-03-27T13:29:34.269Z,78.92
2019-03-27T13:45:14.712Z,81.78
2019-03-27T13:51:24.591Z,80.77
2019-03-27T13:54:12.019Z,80.41
2019-03-27T13:56:43.370Z,82.62
2019-03-27T13:59:18.302Z,81.61
2019-03-27T14:01:58.455Z,83.72
2019-03-27T14:04:34.761Z,81.62
2019-03-27T14:07:09.063Z,83.90
2019-03-27T14:09:41.743Z,82.94
2019-03-27T14:12:13.831Z,83.04
2019-03-27T14:14:50.602Z,80.71
2019-03-27T14:17:18.517Z,82.86
2019-03-27T14:19:52.659Z,81.59
2019-03-27T14:22:35.245Z,81.62
2019-03-27T14:25:09.567Z,83.24
2019-03-27T14:27:45.597Z,83.91
2019-03-27T14:30:36.040Z,84.91
2019-03-27T14:33:06.616Z,85.30
2019-03-27T14:35:39.980Z,85.45
2019-03-27T14:38:13.303Z,83.83
2019-03-27T14:40:50.590Z,85.40
2019-03-27T14:43:27.195Z,86.56
2019-03-27T14:45:58.607Z,85.87
2019-03-27T14:48:29.306Z,85.75
2019-03-27T14:51:07.006Z,85.33
2019-03-27T14:53:37.952Z,87.04
2019-03-27T14:56:09.177Z,85.43
2019-03-27T14:58:39.979Z,85.96
2019-03-27T15:01:10.393Z,85.62
2019-03-27T15:03:41.547Z,84.78
2019-03-27T15:06:11.953Z,86.29
2019-03-27T15:08:42.399Z,87.51
2019-03-27T15:11:12.820Z,87.33
2019-03-27T15:13:43.449Z,86.60
2019-03-27T15:16:13.931Z,86.72
2019-03-27T15:18:44.547Z,87.22
2019-03-27T15:21:14.964Z,87.60
2019-03-27T15:23:45.461Z,88.13
2019-03-27T15:26:16.624Z,88.58
2019-03-27T15:28:50.514Z,88.00
2019-03-27T15:31:20.866Z,86.98
2019-03-27T15:33:51.524Z,87.90
2019-03-27T15:36:21.939Z,88.02
2019-03-27T15:38:52.453Z,88.14
2019-03-27T15:41:22.857Z,88.89
2019-03-27T15:43:56.987Z,89.46
2019-03-27T15:46:29.379Z,89.15
2019-03-27T15:49:01.553Z,89.43
2019-03-27T15:51:36.618Z,89.56
2019-03-27T15:54:07.860Z,89.47
2019-03-27T15:56:38.719Z,89.54
2019-03-27T15:59:09.605Z,89.38
2019-03-27T16:01:40.198Z,89.59
2019-03-27T16:04:12.957Z,89.69
2019-03-27T16:06:43.316Z,89.36
2019-03-27T16:09:14.820Z,89.24
2019-03-27T16:11:45.218Z,88.63
2019-03-27T16:14:15.672Z,88.66
2019-03-27T16:17:01.337Z,88.68
2019-03-27T16:19:18.242Z,89.66
2019-03-27T16:21:48.694Z,89.76
2019-03-27T16:24:20.770Z,89.69
2019-03-27T16:27:03.771Z,89.54
2019-03-27T16:29:23.327Z,90.40
2019-03-27T16:31:53.743Z,90.43
2019-03-27T16:34:25.388Z,89.67
2019-03-27T16:36:55.906Z,89.49
2019-03-27T16:39:26.414Z,89.80
2019-03-27T16:41:56.856Z,90.36
2019-03-27T16:44:27.413Z,90.37
2019-03-27T16:46:57.819Z,90.69
2019-03-27T16:49:28.304Z,90.47
2019-03-27T16:51:58.706Z,90.37
2019-03-27T16:54:29.176Z,90.57
2019-03-27T16:56:59.575Z,90.44
2019-03-27T16:59:30.060Z,90.48
2019-03-27T17:02:04.863Z,90.41
2019-03-27T17:04:35.336Z,90.53
2019-03-27T17:07:05.774Z,90.77
2019-03-27T17:09:36.239Z,91.05
2019-03-27T17:12:06.650Z,91.50
2019-03-27T17:14:37.218Z,91.16
2019-03-27T17:17:07.609Z,91.58
2019-03-27T17:19:38.097Z,91.39
2019-03-27T17:22:19.266Z,91.28
2019-03-27T17:24:43.222Z,91.19
2019-03-27T17:27:14.248Z,91.30
2019-03-27T17:29:44.728Z,91.20
2019-03-27T17:32:15.147Z,91.30
2019-03-27T17:34:47.604Z,91.32
2019-03-27T17:37:17.769Z,91.28
2019-03-27T17:39:48.230Z,91.18
2019-03-27T17:42:18.630Z,91.11
2019-03-27T17:44:51.976Z,90.80
2019-03-27T17:47:21.525Z,90.93
2019-03-27T17:49:52.054Z,90.83
2019-03-27T17:52:22.445Z,90.99
2019-03-27T17:54:52.972Z,90.82
2019-03-27T17:57:23.367Z,90.50
2019-03-27T17:59:53.812Z,90.29
2019-03-27T18:02:24.208Z,91.09
2019-03-27T18:04:54.682Z,90.99
2019-03-27T18:07:25.047Z,91.30
2019-03-27T18:09:55.505Z,91.43
2019-03-27T18:12:25.904Z,91.52
2019-03-27T18:14:56.388Z,91.15
2019-03-27T18:17:26.810Z,91.02
2019-03-27T18:19:57.300Z,90.39
2019-03-27T18:22:27.617Z,90.51
2019-03-27T18:24:58.051Z,90.83
2019-03-27T18:27:28.460Z,90.68
2019-03-27T18:29:58.831Z,90.61
2019-03-27T18:32:29.225Z,90.77
2019-03-27T18:34:59.672Z,90.93
2019-03-27T18:37:30.105Z,91.27
2019-03-27T18:40:00.534Z,90.81
2019-03-27T18:42:30.991Z,90.70
2019-03-27T18:45:01.532Z,90.69
2019-03-27T18:47:31.964Z,90.86
2019-03-27T18:50:02.468Z,90.49
2019-03-27T18:52:32.912Z,90.31
2019-03-27T18:55:03.748Z,90.68
2019-03-27T18:57:34.148Z,90.55
2019-03-27T19:00:09.187Z,90.64
2019-03-27T19:02:39.608Z,90.75
2019-03-27T19:05:10.157Z,90.51
2019-03-27T19:07:40.563Z,90.47
2019-03-27T19:10:11.110Z,90.78
2019-03-27T19:12:41.555Z,90.54
2019-03-27T19:15:12.009Z,90.67
2019-03-27T19:17:42.439Z,89.99
2019-03-27T19:20:13.103Z,90.10
2019-03-27T19:22:43.555Z,90.09
2019-03-27T19:25:14.007Z,90.18
2019-03-27T19:27:44.429Z,90.10
2019-03-27T19:30:15.301Z,89.81
2019-03-27T19:32:45.677Z,89.98
2019-03-27T19:35:16.128Z,89.98
2019-03-27T19:37:46.579Z,89.88
2019-03-27T19:40:17.140Z,89.87
2019-03-27T19:42:47.531Z,90.52
2019-03-27T19:45:18.086Z,90.27
2019-03-27T19:47:48.485Z,89.85
2019-03-27T19:50:18.949Z,89.21
2019-03-27T19:52:49.271Z,90.36
2019-03-27T19:55:19.655Z,90.37
2019-03-27T19:57:50.039Z,90.36
2019-03-27T20:00:21.071Z,90.61
2019-03-27T20:02:51.487Z,90.23
2019-03-27T20:05:21.923Z,89.92
2019-03-27T20:07:52.328Z,90.14
2019-03-27T20:10:25.178Z,90.53
2019-03-27T20:12:55.600Z,90.39
2019-03-27T20:15:26.083Z,90.83
2019-03-27T20:17:56.513Z,90.34
2019-03-27T20:20:26.928Z,90.43
2019-03-27T20:22:57.316Z,90.24
2019-03-27T20:25:27.790Z,90.16
2019-03-27T20:27:58.488Z,90.90
2019-03-27T20:30:28.947Z,90.91
2019-03-27T20:32:59.354Z,90.73
2019-03-27T20:35:29.798Z,90.66
2019-03-27T20:38:00.284Z,90.50
2019-03-27T20:40:31.083Z,90.11
2019-03-27T20:43:01.462Z,90.50
2019-03-27T20:45:31.989Z,89.96
2019-03-27T20:48:02.391Z,89.85
2019-03-27T20:50:32.843Z,89.81
2019-03-27T20:53:03.277Z,89.99
2019-03-27T20:55:33.714Z,90.09
2019-03-27T20:58:04.125Z,90.60
2019-03-27T21:00:34.582Z,90.69
2019-03-27T21:03:04.974Z,91.11
2019-03-27T21:05:35.607Z,90.95
2019-03-27T21:08:06.080Z,90.90
2019-03-27T21:10:36.563Z,91.72
2019-03-27T21:13:07.011Z,91.75
2019-03-27T21:15:38.738Z,91.09
2019-03-27T21:18:09.604Z,90.49
2019-03-27T21:20:40.056Z,90.50
2019-03-27T21:23:10.503Z,90.72
2019-03-27T21:25:40.987Z,90.72
2019-03-27T21:28:11.403Z,90.95
2019-03-27T21:30:41.878Z,90.83
2019-03-27T21:33:12.288Z,90.74
2019-03-27T21:35:42.767Z,90.68
2019-03-27T21:38:13.181Z,90.55
2019-03-27T21:40:43.646Z,90.78
2019-03-27T21:43:14.048Z,90.50
2019-03-27T21:45:44.594Z,90.29
2019-03-27T21:48:14.988Z,90.31
2019-03-27T21:50:45.439Z,90.50
2019-03-27T21:53:15.839Z,90.70
2019-03-27T21:55:46.287Z,90.96
2019-03-27T21:58:16.595Z,90.05
2019-03-27T22:00:47.240Z,89.85
2019-03-27T22:03:17.662Z,90.01
2019-03-27T22:05:48.050Z,90.13
2019-03-27T22:08:18.474Z,90.03
2019-03-27T22:10:48.911Z,89.68
2019-03-27T22:13:19.334Z,89.66
2019-03-27T22:15:49.748Z,89.77
2019-03-27T22:18:20.165Z,89.36
2019-03-27T22:20:50.599Z,89.60
2019-03-27T22:23:20.990Z,89.41
2019-03-27T22:25:51.442Z,89.20
2019-03-27T22:28:21.833Z,90.03
2019-03-27T22:30:52.286Z,91.19
2019-03-27T22:33:22.689Z,90.65
2019-03-27T22:35:53.120Z,90.40
2019-03-27T22:38:23.504Z,90.22
2019-03-27T22:40:53.942Z,90.06
2019-03-27T22:43:24.331Z,90.70
2019-03-27T22:45:54.854Z,90.56
2019-03-27T22:48:25.260Z,90.13
2019-03-27T22:50:55.670Z,90.27
2019-03-27T22:53:26.128Z,90.35
2019-03-27T22:55:56.598Z,90.79
2019-03-27T22:58:26.964Z,91.55
2019-03-27T23:00:57.719Z,91.54
2019-03-27T23:03:28.114Z,91.26
2019-03-27T23:05:58.578Z,91.23
2019-03-27T23:08:28.996Z,91.41
2019-03-27T23:10:59.442Z,91.64
2019-03-27T23:13:29.850Z,90.96
2019-03-27T23:16:00.334Z,91.35
2019-03-27T23:18:30.740Z,91.51
2019-03-27T23:21:01.196Z,90.79
2019-03-27T23:23:31.596Z,90.63
2019-03-27T23:26:03.399Z,90.43
2019-03-27T23:28:34.276Z,91.11
2019-03-27T23:31:04.719Z,91.47
2019-03-27T23:33:35.120Z,90.43
2019-03-27T23:36:05.591Z,91.57
2019-03-27T23:38:36.085Z,90.95
2019-03-27T23:41:06.551Z,90.47
2019-03-27T23:43:36.956Z,90.71
2019-03-27T23:46:07.474Z,90.68
2019-03-27T23:48:37.979Z,90.86
2019-03-27T23:51:08.411Z,91.00
2019-03-27T23:53:38.813Z,91.50
2019-03-27T23:56:16.652Z,91.28
2019-03-27T23:58:41.400Z,91.55
